createdAt,value
2022-10-20T00:05:00.916Z,5.70
2022-10-20T00:10:02.950Z,6.75
2022-10-20T00:15:05.197Z,6.18
2022-10-20T00:20:07.609Z,6.07
2022-10-20T00:25:09.752Z,6.10
2022-10-20T00:30:11.997Z,5.95
2022-10-20T00:35:14.036Z,6.22
2022-10-20T00:40:16.115Z,6.15
2022-10-20T00:45:20.116Z,5.95
2022-10-20T00:50:23.884Z,5.82
2022-10-20T00:55:27.497Z,5.97
2022-10-20T01:00:30.089Z,6.15
2022-10-20T01:05:32.229Z,6.15
2022-10-20T01:10:40.071Z,6.18
2022-10-20T01:15:42.130Z,6.82
2022-10-20T01:20:51.737Z,6.45
2022-10-20T01:26:11.749Z,5.80
2022-10-20T01:31:22.969Z,6.78
2022-10-20T01:36:34.361Z,6.10
2022-10-20T01:42:12.009Z,6.38
2022-10-20T01:47:14.919Z,6.07
2022-10-20T01:52:16.998Z,6.22
2022-10-20T01:57:22.173Z,6.40
2022-10-20T02:02:42.950Z,6.22
2022-10-20T02:07:45.098Z,6.05
2022-10-20T02:12:49.914Z,5.68
2022-10-20T02:17:54.044Z,5.90
2022-10-20T02:22:56.855Z,5.22
2022-10-20T02:33:07.797Z,5.70
2022-10-20T02:38:09.850Z,5.88
2022-10-20T02:43:12.004Z,5.35
2022-10-20T02:48:14.128Z,5.40
2022-10-20T02:53:16.291Z,4.80
2022-10-20T02:58:18.413Z,5.35
2022-10-20T03:03:20.544Z,4.75
2022-10-20T03:08:23.056Z,4.55
2022-10-20T03:13:25.138Z,4.18
2022-10-20T03:18:27.445Z,5.18
2022-10-20T03:23:29.501Z,4.35
2022-10-20T03:28:31.593Z,4.28
2022-10-20T03:33:33.628Z,4.30
2022-10-20T03:38:35.727Z,4.28
2022-10-20T03:43:39.499Z,3.80
2022-10-20T03:48:42.057Z,3.70
2022-10-20T03:53:45.045Z,3.70
2022-10-20T03:58:47.455Z,3.70
2022-10-20T04:03:49.487Z,3.92
2022-10-20T04:08:51.733Z,3.63
2022-10-20T04:13:54.169Z,3.55
2022-10-20T04:18:56.759Z,3.55
2022-10-20T04:23:58.849Z,3.58
2022-10-20T04:29:01.041Z,3.58
2022-10-20T04:34:03.210Z,3.72
2022-10-20T04:39:08.753Z,3.50
2022-10-20T04:44:10.812Z,3.38
2022-10-20T04:49:12.896Z,3.20
2022-10-20T04:54:15.032Z,3.72
2022-10-20T04:59:17.282Z,3.70
2022-10-20T05:04:21.724Z,3.28
2022-10-20T05:09:23.907Z,2.97
2022-10-20T05:14:25.988Z,4.28
2022-10-20T05:19:28.162Z,3.42
2022-10-20T05:24:30.366Z,4.00
2022-10-20T05:29:32.472Z,3.85
2022-10-20T05:34:34.770Z,3.60
2022-10-20T05:39:36.897Z,3.25
2022-10-20T05:44:39.073Z,3.53
2022-10-20T05:49:41.186Z,3.58
2022-10-20T05:54:43.256Z,3.20
2022-10-20T05:59:45.421Z,3.17
2022-10-20T06:04:47.570Z,3.50
2022-10-20T06:09:49.702Z,3.40
2022-10-20T06:14:51.827Z,3.38
2022-10-20T06:19:54.161Z,3.13
2022-10-20T06:24:56.261Z,3.30
2022-10-20T06:29:58.345Z,2.92
2022-10-20T06:35:00.383Z,3.22
2022-10-20T06:40:02.543Z,2.95
2022-10-20T06:45:04.906Z,3.35
2022-10-20T06:50:07.290Z,2.97
2022-10-20T06:55:09.637Z,3.08
2022-10-20T07:00:11.991Z,3.45
2022-10-20T07:05:14.183Z,3.83
2022-10-20T07:10:16.232Z,3.75
2022-10-20T07:15:18.376Z,3.17
2022-10-20T07:20:20.401Z,3.35
2022-10-20T07:25:22.451Z,3.45
2022-10-20T07:30:24.689Z,3.58
2022-10-20T07:35:26.730Z,3.95
2022-10-20T07:40:28.925Z,3.70
2022-10-20T07:45:31.052Z,3.97
2022-10-20T07:50:33.861Z,4.00
2022-10-20T07:55:38.972Z,3.42
2022-10-20T08:00:41.432Z,3.78
2022-10-20T08:05:43.511Z,3.67
2022-10-20T08:10:45.888Z,4.25
2022-10-20T08:15:54.167Z,4.28
2022-10-20T08:21:06.010Z,4.45
2022-10-20T08:26:11.393Z,4.22
2022-10-20T08:31:13.769Z,4.80
2022-10-20T08:36:16.175Z,4.63
2022-10-20T08:41:23.353Z,3.88
2022-10-20T08:46:31.208Z,4.50
2022-10-20T08:51:37.069Z,4.25
2022-10-20T08:56:39.201Z,4.40
2022-10-20T09:01:41.333Z,4.82
2022-10-20T09:06:44.907Z,4.30
2022-10-20T09:11:47.507Z,4.68
2022-10-20T09:16:59.698Z,3.97
2022-10-20T09:22:05.293Z,4.03
2022-10-20T09:27:19.428Z,4.60
2022-10-20T09:32:56.739Z,4.80
2022-10-20T09:37:58.972Z,4.43
2022-10-20T09:43:19.273Z,4.47
2022-10-20T09:48:35.781Z,4.95
2022-10-20T09:53:50.997Z,4.50
2022-10-20T09:58:53.613Z,4.18
2022-10-20T10:03:59.935Z,4.50
2022-10-20T10:09:02.752Z,4.32
2022-10-20T10:14:05.517Z,3.97
2022-10-20T10:19:07.719Z,4.10
2022-10-20T10:24:29.477Z,3.75
2022-10-20T10:29:36.382Z,3.83
2022-10-20T10:34:50.012Z,4.07
2022-10-20T10:39:51.683Z,3.83
2022-10-20T10:45:07.425Z,3.88
2022-10-20T10:50:49.666Z,3.90
2022-10-20T10:56:02.619Z,3.55
2022-10-20T11:01:19.673Z,3.72
2022-10-20T11:06:44.860Z,3.40
2022-10-20T11:12:28.461Z,3.58
2022-10-20T11:18:14.793Z,3.45
2022-10-20T11:23:35.227Z,3.00
2022-10-20T11:28:44.416Z,3.17
2022-10-20T11:33:50.574Z,3.40
2022-10-20T11:38:55.085Z,3.40
2022-10-20T11:44:13.602Z,3.13
2022-10-20T11:49:15.558Z,3.20
2022-10-20T11:54:32.561Z,2.97
2022-10-20T12:10:22.046Z,3.05
2022-10-20T12:15:27.791Z,2.60
2022-10-20T12:20:29.368Z,3.07
2022-10-20T12:25:31.029Z,3.10
2022-10-20T12:30:39.068Z,3.30
2022-10-20T12:36:13.885Z,3.20
2022-10-20T12:41:34.788Z,3.40
2022-10-20T12:46:41.909Z,2.65
2022-10-20T12:51:53.355Z,2.60
2022-10-20T12:57:00.106Z,2.95
2022-10-20T13:02:10.842Z,2.78
2022-10-20T13:07:12.661Z,3.25
2022-10-20T13:12:29.117Z,3.00
2022-10-20T13:17:43.384Z,3.20
2022-10-20T13:22:47.637Z,3.28
2022-10-20T13:27:49.816Z,3.40
2022-10-20T13:33:17.838Z,3.10
2022-10-20T13:39:12.436Z,3.25
2022-10-20T13:44:30.538Z,3.58
2022-10-20T13:49:58.301Z,3.10
2022-10-20T13:55:01.121Z,3.30
2022-10-20T14:00:22.414Z,3.30
2022-10-20T14:05:24.979Z,2.97
2022-10-20T14:10:37.242Z,3.20
2022-10-20T14:15:39.210Z,3.00
2022-10-20T14:20:41.834Z,3.38
2022-10-20T14:25:44.741Z,3.65
2022-10-20T14:30:49.157Z,3.80
2022-10-20T14:35:56.954Z,3.35
2022-10-20T14:40:59.714Z,3.28
2022-10-20T14:46:03.192Z,4.30
2022-10-20T14:51:40.184Z,3.80
2022-10-20T14:56:53.246Z,3.28
2022-10-20T15:02:19.101Z,3.83
2022-10-20T15:07:47.878Z,3.70
2022-10-20T15:12:53.026Z,4.18
2022-10-20T15:18:03.818Z,4.07
2022-10-20T15:23:15.869Z,4.45
2022-10-20T15:28:45.068Z,3.97
2022-10-20T15:33:47.226Z,4.38
2022-10-20T15:38:50.249Z,4.72
2022-10-20T15:43:51.931Z,4.03
2022-10-20T15:48:53.662Z,4.55
2022-10-20T15:53:56.468Z,5.20
2022-10-20T15:58:58.357Z,4.97
2022-10-20T16:04:03.086Z,6.03
2022-10-20T16:09:04.967Z,5.43
2022-10-20T16:14:06.839Z,4.95
2022-10-20T16:19:09.066Z,5.40
2022-10-20T16:24:11.474Z,5.75
2022-10-20T16:29:13.168Z,5.50
2022-10-20T16:34:14.857Z,5.72
2022-10-20T16:39:17.326Z,6.40
2022-10-20T16:44:19.105Z,6.25
2022-10-20T16:49:20.777Z,6.47
2022-10-20T16:54:22.516Z,6.80
2022-10-20T16:59:24.240Z,6.80
2022-10-20T17:04:26.506Z,6.60
2022-10-20T17:09:29.908Z,7.00
2022-10-20T17:14:31.651Z,7.15
2022-10-20T17:19:33.280Z,7.85
2022-10-20T17:24:35.040Z,7.80
2022-10-20T17:29:36.777Z,8.13
2022-10-20T17:34:38.394Z,7.68
2022-10-20T17:39:40.134Z,7.40
2022-10-20T17:44:41.778Z,7.55
2022-10-20T17:49:43.442Z,8.35
2022-10-20T17:54:45.139Z,8.10
2022-10-20T17:59:53.980Z,8.23
2022-10-20T18:04:59.387Z,7.78
2022-10-20T18:10:01.203Z,9.00
2022-10-20T18:15:03.392Z,9.52
2022-10-20T18:20:05.549Z,8.80
2022-10-20T18:25:07.880Z,9.20
2022-10-20T18:30:10.036Z,9.18
2022-10-20T18:35:11.717Z,9.65
2022-10-20T18:40:13.402Z,9.70
2022-10-20T18:45:15.480Z,9.95
2022-10-20T18:50:17.232Z,9.60
2022-10-20T18:55:18.893Z,9.20
2022-10-20T19:00:20.666Z,10.05
2022-10-20T19:05:22.297Z,9.80
2022-10-20T19:10:23.956Z,9.57
2022-10-20T19:15:25.572Z,10.40
2022-10-20T19:20:30.074Z,9.32
2022-10-20T19:25:33.276Z,10.05
2022-10-20T19:30:36.082Z,9.60
2022-10-20T19:35:37.680Z,10.30
2022-10-20T19:40:39.332Z,8.95
2022-10-20T19:45:41.013Z,10.02
2022-10-20T19:50:42.697Z,9.90
2022-10-20T19:55:49.854Z,9.20
2022-10-20T20:00:56.004Z,10.32
2022-10-20T20:06:03.004Z,10.13
2022-10-20T20:11:05.857Z,9.70
2022-10-20T20:16:08.680Z,10.85
2022-10-20T20:21:10.601Z,10.38
2022-10-20T20:26:14.020Z,10.60
2022-10-20T20:31:17.767Z,10.65
2022-10-20T20:36:19.513Z,9.77
2022-10-20T20:41:21.399Z,9.50
2022-10-20T20:46:24.785Z,9.93
2022-10-20T20:51:28.795Z,9.20
2022-10-20T20:56:30.786Z,9.73
2022-10-20T21:01:32.391Z,9.73
2022-10-20T21:06:56.650Z,9.85
2022-10-20T21:11:55.934Z,10.32
2022-10-20T21:16:57.707Z,10.02
2022-10-20T21:22:01.177Z,9.88
2022-10-20T21:27:02.938Z,10.07
2022-10-20T21:32:04.792Z,10.10
2022-10-20T21:37:06.516Z,10.82
2022-10-20T21:42:08.206Z,11.40
2022-10-20T21:47:09.926Z,10.60
2022-10-20T21:52:11.762Z,10.52
2022-10-20T21:57:14.569Z,9.82
2022-10-20T22:02:16.570Z,9.68
2022-10-20T22:07:18.373Z,9.35
2022-10-20T22:12:20.860Z,11.00
2022-10-20T22:17:22.537Z,10.57
2022-10-20T22:22:24.294Z,9.05
2022-10-20T22:27:38.372Z,10.48
2022-10-20T22:32:43.853Z,10.00
2022-10-20T22:37:45.574Z,9.85
2022-10-20T22:42:47.390Z,9.40
2022-10-20T22:47:49.150Z,10.88
2022-10-20T22:52:51.043Z,10.80
2022-10-20T22:57:52.880Z,10.48
2022-10-20T23:02:54.799Z,9.73
2022-10-20T23:07:56.646Z,11.65
2022-10-20T23:12:58.386Z,10.68
2022-10-20T23:18:00.207Z,9.85
2022-10-20T23:23:01.908Z,9.63
2022-10-20T23:28:03.760Z,10.10
2022-10-20T23:33:05.521Z,10.13
2022-10-20T23:38:09.964Z,10.70
2022-10-20T23:43:11.581Z,11.52
2022-10-20T23:48:13.673Z,11.77
2022-10-20T23:53:15.333Z,11.93
2022-10-20T23:58:21.881Z,11.05
